Time;durP1;ratioP1;P1;durP2;ratioP2;P2;SDS_P1;SDS_P2;PMS_P1;PMS_P2;Temp;Humidity;BMP_temperature;BMP_pressure;BME280_temperature;BME280_humidity;BME280_pressure;Samples;Min_cycle;Max_cycle;Signal;HPM_P1;HPM_P2
2023/05/16 04:33:29;;;;;;;7.15;3.30;;;;;;;;;;5107589;27;20987;-57
2023/05/16 04:35:57;;;;;;;7.10;3.20;;;;;;;;;;5107414;28;20183;-56
2023/05/16 04:38:23;;;;;;;8.37;3.23;;;;;;;;;;5104857;28;20562;-56
2023/05/16 04:40:50;;;;;;;7.77;3.67;;;;;;;;;;5108877;28;20564;-56
2023/05/16 04:43:17;;;;;;;6.07;2.97;;;;;;;;;;5104562;28;20175;-56
2023/05/16 04:45:43;;;;;;;7.47;3.10;;;;;;;;;;5095423;28;20182;-56
2023/05/16 04:48:10;;;;;;;7.13;2.70;;;;;;;;;;5102752;28;20580;-56
2023/05/16 04:50:37;;;;;;;8.10;3.63;;;;;;;;;;5099549;28;20204;-61
2023/05/16 04:53:03;;;;;;;5.37;3.07;;;;;;;;;;5108731;28;20711;-61
2023/05/16 04:55:29;;;;;;;9.07;3.57;;;;;;;;;;5079934;28;20174;-61
2023/05/16 04:57:55;;;;;;;7.43;2.60;;;;;;;;;;5107396;28;20187;-61
2023/05/16 05:00:22;;;;;;;5.47;2.80;;;;;;;;;;5102814;28;20181;-62
2023/05/16 05:02:48;;;;;;;8.93;3.37;;;;;;;;;;5104116;28;20531;-61
2023/05/16 05:05:14;;;;;;;6.37;3.07;;;;;;;;;;5106659;28;20172;-61
2023/05/16 05:07:40;;;;;;;7.37;3.03;;;;;;;;;;5109823;28;20252;-61
2023/05/16 05:10:07;;;;;;;7.57;3.30;;;;;;;;;;5105423;28;20648;-61
2023/05/16 05:12:33;;;;;;;10.87;2.70;;;;;;;;;;5108484;28;20187;-61
2023/05/16 05:15:00;;;;;;;7.67;3.00;;;;;;;;;;5108914;28;20302;-61
2023/05/16 05:17:26;;;;;;;7.43;3.13;;;;;;;;;;5110555;27;21226;-64
2023/05/16 05:19:52;;;;;;;6.90;2.37;;;;;;;;;;5108724;28;20183;-61
2023/05/16 05:22:19;;;;;;;5.63;3.17;;;;;;;;;;5109149;28;20179;-62
2023/05/16 05:24:45;;;;;;;10.80;3.47;;;;;;;;;;5084952;28;20178;-62
2023/05/16 05:27:11;;;;;;;10.00;3.17;;;;;;;;;;5109789;28;20639;-63
2023/05/16 05:29:38;;;;;;;12.40;3.20;;;;;;;;;;5106143;28;20210;-63
2023/05/16 05:32:04;;;;;;;5.67;2.73;;;;;;;;;;5104496;28;20180;-63
2023/05/16 05:34:31;;;;;;;12.00;3.33;;;;;;;;;;5104703;28;20215;-63
2023/05/16 05:36:57;;;;;;;11.27;2.83;;;;;;;;;;5108026;27;20175;-61
2023/05/16 05:39:23;;;;;;;;;;;;;;;;;;5100834;28;20638;-62
2023/05/16 05:41:49;;;;;;;;;;;;;;;;;;5110742;27;19922;-62
2023/05/16 05:44:15;;;;;;;;;;;;;;;;;;5094315;28;19912;-62
2023/05/16 05:46:41;;;;;;;;;;;;;;;;;;5107257;28;20061;-62
2023/05/16 05:49:07;;;;;;;;;;;;;;;;;;5105149;28;19959;-61
2023/05/16 05:51:34;;;;;;;;;;;;;;;;;;5117768;27;20672;-62
2023/05/16 05:54:00;;;;;;;;;;;;;;;;;;5098864;28;20296;-61
2023/05/16 05:56:26;;;;;;;;;;;;;;;;;;5107952;28;20000;-62
2023/05/16 05:58:53;;;;;;;;;;;;;;;;;;5106051;28;19915;-62
2023/05/16 06:01:20;;;;;;;;;;;;;;;;;;5108830;28;19911;-62
2023/05/16 06:03:46;;;;;;;;;;;;;;;;;;5105742;28;19953;-62
2023/05/16 06:06:13;;;;;;;;;;;;;;;;;;5109848;28;19972;-65
2023/05/16 06:08:39;;;;;;;;;;;;;;;;;;5102962;28;19965;-63
2023/05/16 06:11:05;;;;;;;;;;;;;;;;;;5108886;28;20369;-62
2023/05/16 06:13:32;;;;;;;;;;;;;;;;;;5106141;28;19918;-62
2023/05/16 06:15:58;;;;;;;;;;;;;;;;;;5110446;27;19935;-62
2023/05/16 06:18:24;;;;;;;;;;;;;;;;;;5101096;28;19911;-61
2023/05/16 06:20:50;;;;;;;;;;;;;;;;;;5101777;28;19915;-62
2023/05/16 06:23:16;;;;;;;;;;;;;;;;;;5101467;28;20382;-62
2023/05/16 06:25:42;;;;;;;;;;;;;;;;;;5109697;27;19954;-63
2023/05/16 06:28:08;;;;;;;;;;;;;;;;;;5095315;28;19911;-61
2023/05/16 06:30:35;;;;;;;;;;;;;;;;;;5109079;28;20474;-62
2023/05/16 06:33:01;;;;;;;;;;;;;;;;;;5105285;28;19911;-67
2023/05/16 06:35:27;;;;;;;;;;;;;;;;;;5106591;27;19911;-61
2023/05/16 06:37:53;;;;;;;;;;;;;;;;;;5086538;28;19911;-61
2023/05/16 06:40:19;;;;;;;;;;;;;;;;;;5104019;28;19957;-62
2023/05/16 06:42:45;;;;;;;;;;;;;;;;;;5108149;28;19982;-61
2023/05/16 06:45:11;;;;;;;;;;;;;;;;;;5085129;28;20439;-61
2023/05/16 06:47:37;;;;;;;;;;;;;;;;;;5108465;28;19907;-61
2023/05/16 06:50:03;;;;;;;;;;;;;;;;;;5103285;27;20525;-62
2023/05/16 06:52:29;;;;;;;;;;;;;;;;;;5109325;27;19916;-64
2023/05/16 06:54:55;;;;;;;;;;;;;;;;;;5107323;27;20410;-63
2023/05/16 06:57:21;;;;;;;;;;;;;;;;;;5107382;27;20287;-62
2023/05/16 06:59:48;;;;;;;;;;;;;;;;;;5104640;28;20371;-65
2023/05/16 07:02:14;;;;;;;;;;;;;;;;;;5090543;28;20423;-62
2023/05/16 07:04:40;;;;;;;;;;;;;;;;;;5116650;27;19949;-64
2023/05/16 07:07:09;;;;;;;;;;;;;;;;;;5113945;27;19915;-62
2023/05/16 07:09:35;;;;;;;;;;;;;;;;;;5102193;27;20351;-61
2023/05/16 07:12:01;;;;;;;;;;;;;;;;;;5105963;28;19907;-59
2023/05/16 07:14:27;;;;;;;;;;;;;;;;;;5104460;27;20281;-60
2023/05/16 07:16:53;;;;;;;;;;;;;;;;;;5114914;27;20402;-60
2023/05/16 07:19:19;;;;;;;;;;;;;;;;;;5104641;27;19999;-60
2023/05/16 07:21:45;;;;;;;;;;;;;;;;;;5105275;28;19943;-59
2023/05/16 07:24:11;;;;;;;;;;;;;;;;;;5105718;28;19930;-59
2023/05/16 07:26:37;;;;;;;;;;;;;;;;;;5110481;28;19904;-61
2023/05/16 07:29:03;;;;;;;;;;;;;;;;;;5105872;27;20392;-58
2023/05/16 07:31:30;;;;;;;;;;;;;;;;;;5108140;28;19915;-60
2023/05/16 07:33:56;;;;;;;;;;;;;;;;;;5105700;28;19980;-59
2023/05/16 07:36:22;;;;;;;;;;;;;;;;;;5089052;28;20411;-59
2023/05/16 07:38:48;;;;;;;;;;;;;;;;;;5108654;28;19916;-60
2023/05/16 07:41:14;;;;;;;;;;;;;;;;;;5104112;28;19911;-64
2023/05/16 07:43:40;;;;;;;;;;;;;;;;;;5107924;28;20355;-62
2023/05/16 07:46:07;;;;;;;;;;;;;;;;;;5104370;28;20007;-61
2023/05/16 07:48:33;;;;;;;;;;;;;;;;;;5105745;28;19979;-60
2023/05/16 07:50:59;;;;;;;;;;;;;;;;;;5115054;28;19924;-60
2023/05/16 07:53:25;;;;;;;;;;;;;;;;;;5129119;27;20383;-61
2023/05/16 07:55:51;;;;;;;;;;;;;;;;;;5104901;28;19915;-61
2023/05/16 07:58:18;;;;;;;;;;;;;;;;;;5111997;28;19922;-63
2023/05/16 08:00:44;;;;;;;;;;;;;;;;;;5110834;28;20450;-62
2023/05/16 08:03:10;;;;;;;;;;;;;;;;;;5108725;28;19908;-61
2023/05/16 08:05:36;;;;;;;;;;;;;;;;;;5102820;28;20029;-60
2023/05/16 08:08:02;;;;;;;;;;;;;;;;;;5110671;28;20290;-62
2023/05/16 08:10:29;;;;;;;;;;;;;;;;;;5085701;28;19916;-67
2023/05/16 08:12:54;;;;;;;;;;;;;;;;;;5105320;28;19998;-62
2023/05/16 08:15:21;;;;;;;;;;;;;;;;;;5106551;28;20002;-63
2023/05/16 08:17:47;;;;;;;;;;;;;;;;;;5101191;28;19912;-62
2023/05/16 08:20:13;;;;;;;;;;;;;;;;;;5103214;28;20282;-63
2023/05/16 08:22:39;;;;;;;;;;;;;;;;;;5088061;28;19911;-63
2023/05/16 08:25:05;;;;;;;;;;;;;;;;;;5099136;28;19918;-63
2023/05/16 08:27:31;;;;;;;;;;;;;;;;;;5106451;28;19911;-62
2023/05/16 08:29:57;;;;;;;;;;;;;;;;;;5098417;28;20851;-61
2023/05/16 08:32:24;;;;;;;;;;;;;;;;;;5104714;28;19934;-61
2023/05/16 08:34:50;;;;;;;;;;;;;;;;;;5105008;28;19915;-62
2023/05/16 08:37:16;;;;;;;;;;;;;;;;;;5100655;28;20318;-61
2023/05/16 08:39:42;;;;;;;;;;;;;;;;;;5103824;27;19955;-61
2023/05/16 08:42:08;;;;;;;;;;;;;;;;;;5106217;27;19919;-61
2023/05/16 08:44:34;;;;;;;;;;;;;;;;;;5104059;27;21405;-61
2023/05/16 08:46:59;;;;;;;;;;;;;;;;;;5104566;27;20419;-62
2023/05/16 08:49:25;;;;;;;;;;;;;;;;;;5109889;27;19934;-61
2023/05/16 08:51:51;;;;;;;;;;;;;;;;;;5112228;27;20007;-61
2023/05/16 08:54:17;;;;;;;;;;;;;;;;;;5106453;27;19972;-60
2023/05/16 08:56:43;;;;;;;;;;;;;;;;;;5108396;27;19951;-61
2023/05/16 08:59:10;;;;;;;;;;;;;;;;;;5110517;27;19943;-62
2023/05/16 09:01:36;;;;;;;;;;;;;;;;;;5105749;27;19918;-63
2023/05/16 09:04:02;;;;;;;;;;;;;;;;;;5104824;27;19915;-64
2023/05/16 09:06:28;;;;;;;;;;;;;;;;;;5104301;28;20378;-63
2023/05/16 09:08:54;;;;;;;;;;;;;;;;;;5103508;27;19912;-63
2023/05/16 09:11:21;;;;;;;;;;;;;;;;;;5090904;28;19923;-62
2023/05/16 09:13:47;;;;;;;;;;;;;;;;;;5107292;27;19963;-63
2023/05/16 09:16:13;;;;;;;;;;;;;;;;;;5103675;27;20278;-62
2023/05/16 09:18:39;;;;;;;;;;;;;;;;;;5119940;27;20006;-63
2023/05/16 09:21:06;;;;;;;;;;;;;;;;;;5106924;27;19918;-62
2023/05/16 09:23:32;;;;;;;;;;;;;;;;;;5110984;27;19907;-63
2023/05/16 09:25:58;;;;;;;;;;;;;;;;;;5108650;27;20292;-71
2023/05/16 09:28:24;;;;;;;;;;;;;;;;;;5106211;27;19966;-62
2023/05/16 09:30:50;;;;;;;;;;;;;;;;;;5104319;27;20565;-62
2023/05/16 09:33:16;;;;;;;;;;;;;;;;;;5114690;27;19950;-63
2023/05/16 09:35:42;;;;;;;;;;;;;;;;;;5112160;28;19988;-62
2023/05/16 09:38:08;;;;;;;;;;;;;;;;;;5107611;27;19907;-62
2023/05/16 09:40:34;;;;;;;;;;;;;;;;;;5108197;28;20294;-62
2023/05/16 09:43:00;;;;;;;;;;;;;;;;;;5110635;28;19908;-61
2023/05/16 09:45:26;;;;;;;;;;;;;;;;;;5109652;27;20419;-61
2023/05/16 09:47:52;;;;;;;;;;;;;;;;;;5108762;27;19947;-62
2023/05/16 09:50:18;;;;;;;;;;;;;;;;;;5099018;28;19962;-59
2023/05/16 09:52:44;;;;;;;;;;;;;;;;;;5098713;28;19943;-59
2023/05/16 09:55:10;;;;;;;;;;;;;;;;;;5105649;28;20095;-60
2023/05/16 09:57:36;;;;;;;;;;;;;;;;;;5098186;28;19988;-58
2023/05/16 10:00:04;;;;;;;;;;;;;;;;;;5106534;28;19993;-60
2023/05/16 10:02:30;;;;;;;;;;;;;;;;;;5108058;28;20283;-58
2023/05/16 10:04:56;;;;;;;;;;;;;;;;;;5103588;27;19919;-57
2023/05/16 10:07:22;;;;;;;;;;;;;;;;;;5105503;28;19904;-60
2023/05/16 10:09:48;;;;;;;;;;;;;;;;;;5085326;28;19955;-60
2023/05/16 10:12:14;;;;;;;;;;;;;;;;;;5109008;28;19961;-60
2023/05/16 10:14:40;;;;;;;;;;;;;;;;;;5109313;27;19947;-67
2023/05/16 10:17:06;;;;;;;;;;;;;;;;;;5103753;28;19955;-65
2023/05/16 10:19:32;;;;;;;;;;;;;;;;;;5099150;28;19962;-69
2023/05/16 10:21:58;;;;;;;;;;;;;;;;;;5097919;27;19962;-59
2023/05/16 10:24:24;;;;;;;;;;;;;;;;;;5102819;27;19998;-62
2023/05/16 10:26:50;;;;;;;;;;;;;;;;;;5099690;28;20512;-66
2023/05/16 10:29:16;;;;;;;;;;;;;;;;;;5095672;27;19973;-67
2023/05/16 10:31:42;;;;;;;;;;;;;;;;;;5101742;28;20327;-66
2023/05/16 10:34:09;;;;;;;;;;;;;;;;;;5096989;28;20410;-67
2023/05/16 10:36:35;;;;;;;;;;;;;;;;;;5087218;28;19912;-65
2023/05/16 10:39:00;;;;;;;;;;;;;;;;;;5078245;28;20253;-57
2023/05/16 10:41:26;;;;;;;;;;;;;;;;;;5085701;28;19953;-57
2023/05/16 10:43:52;;;;;;;;;;;;;;;;;;5084908;28;19939;-56
2023/05/16 10:46:18;;;;;;;;;;;;;;;;;;5084325;28;20351;-60
2023/05/16 10:48:44;;;;;;;;;;;;;;;;;;5083890;28;20615;-55
2023/05/16 10:51:10;;;;;;;;;;;;;;;;;;5080277;28;20375;-56
2023/05/16 10:53:36;;;;;;;;;;;;;;;;;;5085615;28;19959;-57
2023/05/16 10:56:02;;;;;;;;;;;;;;;;;;5083476;28;19947;-58
2023/05/16 10:58:28;;;;;;;;;;;;;;;;;;5082447;28;19955;-57
2023/05/16 11:00:55;;;;;;;;;;;;;;;;;;5092782;28;19919;-59
2023/05/16 11:03:23;;;;;;;;;;;;;;;;;;5082535;28;19914;-55
2023/05/16 11:05:51;;;;;;;;;;;;;;;;;;5088139;28;19915;-55
2023/05/16 11:08:16;;;;;;;;;;;;;;;;;;5087346;28;19908;-57
2023/05/16 11:10:42;;;;;;;;;;;;;;;;;;5086139;28;19916;-56
2023/05/16 11:13:08;;;;;;;;;;;;;;;;;;5083891;28;19951;-55
2023/05/16 11:15:34;;;;;;;;;;;;;;;;;;5086858;28;19943;-56
2023/05/16 11:18:00;;;;;;;;;;;;;;;;;;5089781;28;19991;-56
2023/05/16 11:20:26;;;;;;;;;;;;;;;;;;5086302;28;20398;-56
2023/05/16 11:22:52;;;;;;;;;;;;;;;;;;5093587;28;19997;-59
2023/05/16 11:25:18;;;;;;;;;;;;;;;;;;5086948;28;20395;-57
2023/05/16 11:27:44;;;;;;;;;;;;;;;;;;5090298;28;19994;-56
2023/05/16 11:30:10;;;;;;;;;;;;;;;;;;5069206;28;19951;-57
2023/05/16 11:32:36;;;;;;;;;;;;;;;;;;5086625;28;19914;-61
2023/05/16 11:35:02;;;;;;;;;;;;;;;;;;5101276;28;19911;-58
2023/05/16 11:37:28;;;;;;;;;;;;;;;;;;5106547;28;19922;-60
2023/05/16 11:39:55;;;;;;;;;;;;;;;;;;5104946;28;19919;-59
2023/05/16 11:42:21;;;;;;;;;;;;;;;;;;5089372;28;19908;-60
2023/05/16 11:44:47;;;;;;;;;;;;;;;;;;5109536;28;19922;-60
2023/05/16 11:47:13;;;;;;;;;;;;;;;;;;5106252;28;19911;-61
2023/05/16 11:49:40;;;;;;;;;;;;;;;;;;5087414;28;20193;-60
2023/05/16 11:52:06;;;;;;;;;;;;;;;;;;5089591;28;19916;-60
2023/05/16 11:54:33;;;;;;;;;;;;;;;;;;5106731;28;20110;-58
2023/05/16 11:56:59;;;;;;;;;;;;;;;;;;5106635;28;19914;-60
2023/05/16 11:59:25;;;;;;;;;;;;;;;;;;5114138;28;20262;-60
2023/05/16 12:01:51;;;;;;;;;;;;;;;;;;5111841;28;19915;-60
2023/05/16 12:04:19;;;;;;;;;;;;;;;;;;5107567;28;19908;-60
2023/05/16 12:06:46;;;;;;;;;;;;;;;;;;5106531;28;20331;-60
2023/05/16 12:09:12;;;;;;;;;;;;;;;;;;5105472;28;20439;-60
2023/05/16 12:11:38;;;;;;;;;;;;;;;;;;5104840;28;19915;-60
2023/05/16 12:14:04;;;;;;;;;;;;;;;;;;5107432;27;20060;-61
2023/05/16 12:16:30;;;;;;;;;;;;;;;;;;5110764;27;19939;-61
2023/05/16 12:18:56;;;;;;;;;;;;;;;;;;5109265;27;19954;-62
2023/05/16 12:21:22;;;;;;;;;;;;;;;;;;5106093;27;19969;-61
2023/05/16 12:23:48;;;;;;;;;;;;;;;;;;5110496;27;19955;-61
2023/05/16 12:26:14;;;;;;;;;;;;;;;;;;5116303;27;19953;-61
2023/05/16 12:28:40;;;;;;;;;;;;;;;;;;5114022;27;21554;-61
2023/05/16 12:31:06;;;;;;;;;;;;;;;;;;5111160;27;19966;-61
2023/05/16 12:33:32;;;;;;;;;;;;;;;;;;5107375;27;19916;-60
2023/05/16 12:36:00;;;;;;;;;;;;;;;;;;5107679;27;19972;-61
2023/05/16 12:38:26;;;;;;;;;;;;;;;;;;5108458;27;19907;-62
2023/05/16 12:40:52;;;;;;;;;;;;;;;;;;5104406;28;19962;-62
2023/05/16 12:43:18;;;;;;;;;;;;;;;;;;5107435;28;19999;-63
2023/05/16 12:45:44;;;;;;;;;;;;;;;;;;5107277;28;19911;-62
2023/05/16 12:48:11;;;;;;;;;;;;;;;;;;5112546;28;19911;-61
2023/05/16 12:50:37;;;;;;;;;;;;;;;;;;5112601;28;20422;-62
2023/05/16 12:53:03;;;;;;;;;;;;;;;;;;5113689;28;20070;-67
2023/05/16 12:55:29;;;;;;;;;;;;;;;;;;5114356;27;19962;-62
2023/05/16 12:57:55;;;;;;;;;;;;;;;;;;5092088;28;19955;-62
2023/05/16 13:00:22;;;;;;;;;;;;;;;;;;5113313;28;19911;-62
2023/05/16 13:02:48;;;;;;;;;;;;;;;;;;5113775;28;20482;-63
2023/05/16 13:05:14;;;;;;;;;;;;;;;;;;5094362;28;20546;-63
2023/05/16 13:07:40;;;;;;;;;;;;;;;;;;5094028;28;19908;-65
2023/05/16 13:10:09;;;;;;;;;;;;;;;;;;5110755;27;19922;-62
2023/05/16 13:12:35;;;;;;;;;;;;;;;;;;5113299;28;19915;-63
2023/05/16 13:15:01;;;;;;;;;;;;;;;;;;5112903;28;19903;-62
2023/05/16 13:17:29;;;;;;;;;;;;;;;;;;5113287;28;20312;-63
2023/05/16 13:19:55;;;;;;;;;;;;;;;;;;5112398;27;20021;-63
2023/05/16 13:22:21;;;;;;;;;;;;;;;;;;5113823;27;19912;-62
2023/05/16 13:24:48;;;;;;;;;;;;;;;;;;5119207;27;19907;-65
2023/05/16 13:27:14;;;;;;;;;;;;;;;;;;5113021;28;19910;-66
2023/05/16 13:29:40;;;;;;;;;;;;;;;;;;5111493;28;20283;-62
2023/05/16 13:32:07;;;;;;;;;;;;;;;;;;5112551;28;19908;-62
2023/05/16 13:34:33;;;;;;;;;;;;;;;;;;5111502;27;19912;-63
2023/05/16 13:36:59;;;;;;;;;;;;;;;;;;5111375;28;19912;-62
2023/05/16 13:39:25;;;;;;;;;;;;;;;;;;5102799;27;20376;-64
2023/05/16 13:41:51;;;;;;;;;;;;;;;;;;5107025;27;19969;-60
2023/05/16 13:44:17;;;;;;;;;;;;;;;;;;5109323;28;19958;-59
2023/05/16 13:46:43;;;;;;;;;;;;;;;;;;5107888;28;20359;-69
2023/05/16 13:49:09;;;;;;;;;;;;;;;;;;5108031;28;20289;-62
2023/05/16 13:51:36;;;;;;;;;;;;;;;;;;5109743;28;19940;-61
2023/05/16 13:54:05;;;;;;;;;;;;;;;;;;5110069;27;19913;-60
2023/05/16 13:56:31;;;;;;;;;;;;;;;;;;5102377;27;19911;-60
2023/05/16 13:58:58;;;;;;;;;;;;;;;;;;5101734;28;19950;-61
2023/05/16 14:01:24;;;;;;;;;;;;;;;;;;5104705;27;20489;-61
2023/05/16 14:03:50;;;;;;;;;;;;;;;;;;5108462;28;20010;-59
2023/05/16 14:06:16;;;;;;;;;;;;;;;;;;5107834;28;20355;-58
2023/05/16 14:08:42;;;;;;;;;;;;;;;;;;5104743;28;20387;-58
2023/05/16 14:11:08;;;;;;;;;;;;;;;;;;5107486;27;19915;-61
2023/05/16 14:13:35;;;;;;;;;;;;;;;;;;5103354;28;20071;-60
2023/05/16 14:16:01;;;;;;;;;;;;;;;;;;5109168;27;19964;-60
2023/05/16 14:18:27;;;;;;;;;;;;;;;;;;5108241;27;19964;-63
2023/05/16 14:20:55;;;;;;;;;;;;;;;;;;5108388;28;20385;-63
2023/05/16 14:23:21;;;;;;;;;;;;;;;;;;5107908;28;19912;-63
2023/05/16 14:25:47;;;;;;;;;;;;;;;;;;5104165;27;19911;-64
2023/05/16 14:28:14;;;;;;;;;;;;;;;;;;5107137;28;19915;-63
2023/05/16 14:30:41;;;;;;;;;;;;;;;;;;5101611;28;19928;-61
2023/05/16 14:33:07;;;;;;;;;;;;;;;;;;5106115;28;19935;-60
2023/05/16 14:35:34;;;;;;;;;;;;;;;;;;5100290;27;19955;-60
2023/05/16 14:38:00;;;;;;;;;;;;;;;;;;5099211;27;20547;-62
2023/05/16 14:40:26;;;;;;;;;;;;;;;;;;5112456;27;19924;-61
2023/05/16 14:42:52;;;;;;;;;;;;;;;;;;5111037;28;20390;-61
2023/05/16 14:45:18;;;;;;;;;;;;;;;;;;5110100;27;19958;-60
2023/05/16 14:47:44;;;;;;;;;;;;;;;;;;5108021;27;20260;-60
2023/05/16 14:50:11;;;;;;;;;;;;;;;;;;5107044;28;19956;-60
2023/05/16 14:52:37;;;;;;;;;;;;;;;;;;5102834;27;19963;-59
2023/05/16 14:55:04;;;;;;;;;;;;;;;;;;5106480;28;19919;-60
2023/05/16 14:57:31;;;;;;;;;;;;;;;;;;5107656;27;19923;-57
2023/05/16 14:59:57;;;;;;;;;;;;;;;;;;5108587;27;19915;-58
2023/05/16 15:02:25;;;;;;;;;;;;;;;;;;5104473;27;19912;-59
2023/05/16 15:04:53;;;;;;;;;;;;;;;;;;5103862;27;19915;-61
2023/05/16 15:07:19;;;;;;;;;;;;;;;;;;5103224;28;19907;-62
2023/05/16 15:09:46;;;;;;;;;;;;;;;;;;5107759;27;20359;-61
2023/05/16 15:12:12;;;;;;;;;;;;;;;;;;5107751;28;19911;-60
2023/05/16 15:14:38;;;;;;;;;;;;;;;;;;5106983;28;19933;-60
2023/05/16 15:17:04;;;;;;;;;;;;;;;;;;5109423;28;19958;-59
2023/05/16 15:19:30;;;;;;;;;;;;;;;;;;5105850;28;19959;-60
2023/05/16 15:21:56;;;;;;;;;;;;;;;;;;5106487;28;19916;-59
2023/05/16 15:24:22;;;;;;;;;;;;;;;;;;5100599;28;19970;-61
2023/05/16 15:26:49;;;;;;;;;;;;;;;;;;5100020;28;19912;-60
2023/05/16 15:29:16;;;;;;;;;;;;;;;;;;5107347;27;19907;-61
2023/05/16 15:37:11;;;;;;;;;;;;;;;;;;5092387;28;20679;-61
2023/05/16 15:39:37;;;;;;;;;;;;;;;;;;5082325;28;19912;-60
2023/05/16 15:42:04;;;;;;;;;;;;;;;;;;5080792;28;19926;-60
2023/05/16 15:44:30;;;;;;;;;;;;;;;;;;5076871;28;19912;-60
2023/05/16 15:46:56;;;;;;;;;;;;;;;;;;5074794;28;20284;-55
2023/05/16 15:49:22;;;;;;;;;;;;;;;;;;5082421;28;19955;-55
2023/05/16 15:51:48;;;;;;;;;;;;;;;;;;5079866;28;19955;-56
2023/05/16 15:54:14;;;;;;;;;;;;;;;;;;5083983;28;19947;-55
2023/05/16 15:56:40;;;;;;;;;;;;;;;;;;5082434;28;19947;-55
2023/05/16 15:59:06;;;;;;;;;;;;;;;;;;5085932;28;19973;-55
2023/05/16 16:01:32;;;;;;;;;;;;;;;;;;5088640;28;19920;-56
2023/05/16 16:03:58;;;;;;;;;;;;;;;;;;5085979;28;19984;-55
2023/05/16 16:06:24;;;;;;;;;;;;;;;;;;5080709;28;20006;-55
2023/05/16 16:08:50;;;;;;;;;;;;;;;;;;5082121;28;19981;-55
2023/05/16 16:11:16;;;;;;;;;;;;;;;;;;5081318;28;19916;-55
2023/05/16 16:13:42;;;;;;;;;;;;;;;;;;5076747;28;19919;-55
2023/05/16 16:16:08;;;;;;;;;;;;;;;;;;5082478;28;20567;-55
2023/05/16 16:18:34;;;;;;;;;;;;;;;;;;5086384;28;19915;-67
2023/05/16 16:21:00;;;;;;;;;;;;;;;;;;5095571;28;19997;-55
2023/05/16 16:23:26;;;;;;;;;;;;;;;;;;5090945;28;19947;-56
2023/05/16 16:25:52;;;;;;;;;;;;;;;;;;5088142;28;20236;-55
2023/05/16 16:51:07;;;;;;;;;;;;;;;;;;5090386;28;20046;-56
2023/05/16 16:53:34;;;;;;;;;;;;;;;;;;5078796;28;19916;-57
2023/05/16 16:56:00;;;;;;;;;;;;;;;;;;5091670;28;20430;-57
2023/05/16 16:58:26;;;;;;;;;;;;;;;;;;5094092;28;20014;-57
2023/05/16 17:00:51;;;;;;;;;;;;;;;;;;5091027;28;20310;-57
2023/05/16 17:03:17;;;;;;;;;;;;;;;;;;5093285;28;19951;-57
2023/05/16 17:05:43;;;;;;;;;;;;;;;;;;5089685;28;20335;-57
2023/05/16 17:08:09;;;;;;;;;;;;;;;;;;5091082;28;19974;-57
2023/05/16 17:10:35;;;;;;;;;;;;;;;;;;5090675;28;19908;-57
2023/05/16 17:13:05;;;;;;;;;;;;;;;;;;5086194;28;20347;-57
2023/05/16 17:15:31;;;;;;;;;;;;;;;;;;5081321;28;19962;-57
2023/05/16 17:17:57;;;;;;;;;;;;;;;;;;5092613;28;19912;-57
2023/05/16 17:20:23;;;;;;;;;;;;;;;;;;5087928;28;20010;-57
2023/05/16 17:22:49;;;;;;;;;;;;;;;;;;5090460;28;19956;-57
2023/05/16 17:25:15;;;;;;;;;;;;;;;;;;5089325;28;19939;-57
2023/05/16 17:27:43;;;;;;;;;;;;;;;;;;5087500;28;19915;-57
2023/05/16 17:30:09;;;;;;;;;;;;;;;;;;5084934;28;20208;-57
2023/05/16 17:32:35;;;;;;;;;;;;;;;;;;5088282;28;19915;-58
2023/05/16 17:35:02;;;;;;;;;;;;;;;;;;5083686;28;20007;-58
2023/05/16 17:37:28;;;;;;;;;;;;;;;;;;5091591;28;19949;-56
2023/05/16 17:39:55;;;;;;;;;;;;;;;;;;5094056;28;19965;-56
2023/05/16 17:42:20;;;;;;;;;;;;;;;;;;5080338;28;19922;-57
2023/05/16 17:44:46;;;;;;;;;;;;;;;;;;5088347;28;19904;-56
2023/05/16 17:47:12;;;;;;;;;;;;;;;;;;5087587;28;19940;-58
2023/05/16 17:49:38;;;;;;;;;;;;;;;;;;5078074;28;19951;-58
2023/05/16 17:52:04;;;;;;;;;;;;;;;;;;5081952;28;20329;-57
2023/05/16 17:54:30;;;;;;;;;;;;;;;;;;5076938;28;19956;-57
2023/05/16 17:56:57;;;;;;;;;;;;;;;;;;5077848;28;19912;-57
2023/05/16 17:59:23;;;;;;;;;;;;;;;;;;5079260;28;19908;-56
2023/05/16 18:01:49;;;;;;;;;;;;;;;;;;5080332;28;19966;-56
2023/05/16 18:04:14;;;;;;;;;;;;;;;;;;5079512;28;19947;-57
2023/05/16 18:06:41;;;;;;;;;;;;;;;;;;5080051;28;19951;-57
2023/05/16 18:09:08;;;;;;;;;;;;;;;;;;5075193;28;20318;-57
2023/05/16 18:11:34;;;;;;;;;;;;;;;;;;5077671;28;19912;-57
2023/05/16 18:14:00;;;;;;;;;;;;;;;;;;5086137;28;19931;-57
2023/05/16 18:16:26;;;;;;;;;;;;;;;;;;5090924;28;19904;-56
2023/05/16 18:18:53;;;;;;;;;;;;;;;;;;5084572;28;20356;-56
2023/05/16 18:21:19;;;;;;;;;;;;;;;;;;5082983;28;20070;-56
2023/05/16 18:23:45;;;;;;;;;;;;;;;;;;5106741;27;19908;-56
2023/05/16 18:26:11;;;;;;;;;;;;;;;;;;5085559;28;20000;-57
2023/05/16 18:28:38;;;;;;;;;;;;;;;;;;5088966;28;19962;-57
2023/05/16 18:31:04;;;;;;;;;;;;;;;;;;5096432;28;19995;-56
2023/05/16 18:33:30;;;;;;;;;;;;;;;;;;5082072;28;19919;-56
2023/05/16 18:35:56;;;;;;;;;;;;;;;;;;5090224;28;19908;-56
2023/05/16 18:38:22;;;;;;;;;;;;;;;;;;5089656;28;20331;-56
2023/05/16 18:40:49;;;;;;;;;;;;;;;;;;5103847;28;20401;-56
2023/05/16 18:43:15;;;;;;;;;;;;;;;;;;5110610;28;19912;-56
2023/05/16 18:45:41;;;;;;;;;;;;;;;;;;5108804;27;19999;-56
2023/05/16 18:48:07;;;;;;;;;;;;;;;;;;5097839;28;19955;-56
2023/05/16 18:50:33;;;;;;;;;;;;;;;;;;5104165;27;19976;-57
2023/05/16 18:53:00;;;;;;;;;;;;;;;;;;5104244;28;19915;-56
2023/05/16 18:55:26;;;;;;;;;;;;;;;;;;5110186;28;19969;-56
2023/05/16 18:57:52;;;;;;;;;;;;;;;;;;5105896;28;19912;-56
2023/05/16 19:00:18;;;;;;;;;;;;;;;;;;5109823;28;19916;-56
2023/05/16 19:02:45;;;;;;;;;;;;;;;;;;5108615;28;19908;-56
2023/05/16 19:05:12;;;;;;;;;;;;;;;;;;5109965;27;19911;-56
2023/05/16 19:07:38;;;;;;;;;;;;;;;;;;5106605;28;20039;-56
2023/05/16 19:10:04;;;;;;;;;;;;;;;;;;5109367;28;19947;-56
2023/05/16 19:12:30;;;;;;;;;;;;;;;;;;5110198;28;19912;-56
2023/05/16 19:14:56;;;;;;;;;;;;;;;;;;5109226;28;19950;-56
2023/05/16 19:17:22;;;;;;;;;;;;;;;;;;5108557;28;19962;-56
2023/05/16 19:19:48;;;;;;;;;;;;;;;;;;5107717;28;19994;-55
2023/05/16 19:22:14;;;;;;;;;;;;;;;;;;5109825;27;19911;-56
2023/05/16 19:24:40;;;;;;;;;;;;;;;;;;5109845;27;20293;-56
2023/05/16 19:27:06;;;;;;;;;;;;;;;;;;5108874;28;19911;-56
2023/05/16 19:29:32;;;;;;;;;;;;;;;;;;5104787;28;20396;-55
2023/05/16 19:31:58;;;;;;;;;;;;;;;;;;5109533;28;19919;-56
2023/05/16 19:34:27;;;;;;;;;;;;;;;;;;5109209;28;19914;-56
2023/05/16 19:36:54;;;;;;;;;;;;;;;;;;5107403;28;19907;-56
2023/05/16 19:39:19;;;;;;;;;;;;;;;;;;5109690;28;19926;-56
2023/05/16 19:41:45;;;;;;;;;;;;;;;;;;5100664;28;20371;-56
2023/05/16 19:44:11;;;;;;;;;;;;;;;;;;5098424;28;19944;-56
2023/05/16 19:46:38;;;;;;;;;;;;;;;;;;5102842;28;19936;-56
2023/05/16 19:49:03;;;;;;;;;;;;;;;;;;5089731;28;20010;-57
2023/05/16 19:51:30;;;;;;;;;;;;;;;;;;5093005;28;20170;-56
2023/05/16 19:53:56;;;;;;;;;;;;;;;;;;5097799;28;19911;-56
2023/05/16 19:56:22;;;;;;;;;;;;;;;;;;5101660;28;20616;-56
2023/05/16 19:58:48;;;;;;;;;;;;;;;;;;5094697;28;20339;-55
2023/05/16 20:01:14;;;;;;;;;;;;;;;;;;5109680;27;20394;-56
2023/05/16 20:03:40;;;;;;;;;;;;;;;;;;5095092;28;20018;-56
2023/05/16 20:06:06;;;;;;;;;;;;;;;;;;5099456;28;19951;-56
2023/05/16 20:08:32;;;;;;;;;;;;;;;;;;5098074;28;19916;-55
2023/05/16 20:10:58;;;;;;;;;;;;;;;;;;5093621;28;20003;-55
2023/05/16 20:13:24;;;;;;;;;;;;;;;;;;5097797;28;19916;-55
2023/05/16 20:15:50;;;;;;;;;;;;;;;;;;5095591;28;20256;-56
2023/05/16 20:18:16;;;;;;;;;;;;;;;;;;5097308;28;19954;-56
2023/05/16 20:20:42;;;;;;;;;;;;;;;;;;5095547;28;20354;-56
2023/05/16 20:23:08;;;;;;;;;;;;;;;;;;5101520;28;19915;-56
2023/05/16 20:25:36;;;;;;;;;;;;;;;;;;5098291;28;19951;-56
2023/05/16 20:28:02;;;;;;;;;;;;;;;;;;5098615;28;20224;-57
2023/05/16 20:30:28;;;;;;;;;;;;;;;;;;5097466;28;20385;-57
2023/05/16 20:32:54;;;;;;;;;;;;;;;;;;5095417;28;20347;-57
2023/05/16 20:35:20;;;;;;;;;;;;;;;;;;5097612;27;19953;-56
2023/05/16 20:37:46;;;;;;;;;;;;;;;;;;5100279;27;19961;-57
2023/05/16 20:40:12;;;;;;;;;;;;;;;;;;5102507;28;19922;-57
2023/05/16 20:42:38;;;;;;;;;;;;;;;;;;5103766;27;19907;-57
2023/05/16 20:45:04;;;;;;;;;;;;;;;;;;5101178;27;20039;-57
2023/05/16 20:47:30;;;;;;;;;;;;;;;;;;5084128;28;19920;-57
2023/05/16 20:49:56;;;;;;;;;;;;;;;;;;5097204;27;20011;-57
2023/05/16 20:52:22;;;;;;;;;;;;;;;;;;5101076;27;19953;-58
2023/05/16 20:54:49;;;;;;;;;;;;;;;;;;5099771;27;19912;-57
2023/05/16 20:57:15;;;;;;;;;;;;;;;;;;5102649;28;19911;-58
2023/05/16 20:59:41;;;;;;;;;;;;;;;;;;5099754;28;19912;-57
2023/05/16 21:02:08;;;;;;;;;;;;;;;;;;5099991;28;20007;-58
2023/05/16 21:04:34;;;;;;;;;;;;;;;;;;5099976;27;19915;-57
2023/05/16 21:07:00;;;;;;;;;;;;;;;;;;5099007;28;19915;-57
2023/05/16 21:09:26;;;;;;;;;;;;;;;;;;5096698;27;19958;-57
2023/05/16 21:11:52;;;;;;;;;;;;;;;;;;5101625;28;19951;-57
2023/05/16 21:14:18;;;;;;;;;;;;;;;;;;5103102;28;20062;-57
2023/05/16 21:16:44;;;;;;;;;;;;;;;;;;5099455;28;19951;-57
2023/05/16 21:19:10;;;;;;;;;;;;;;;;;;5096624;28;19908;-57
2023/05/16 21:21:36;;;;;;;;;;;;;;;;;;5101236;27;19954;-57
2023/05/16 21:24:03;;;;;;;;;;;;;;;;;;5098165;28;20383;-57
2023/05/16 21:26:29;;;;;;;;;;;;;;;;;;5100794;28;19918;-57
2023/05/16 21:28:55;;;;;;;;;;;;;;;;;;5099786;28;20355;-57